Prairie Dell, Texas
Current Conditions -  °F | °C
As of 2:35 PM on Monday 26 Jan 2015 (Local Time) from KILE Reporting Station
Clear Clear  
Wind Chill: 73°   Ceiling: Unl
Heat Index: 73°   Visibility: 10mi
Dew Point: 30°   Wind: 13mph
Humidity: 20%   Direction: 270°W
Pressure: 30.15"   Gusts: 18mph
Location:  30.9273°N, 97.5558°W
Report Text: KILE 262035Z AUTO 27011G16KT 10SM CLR 23/M01 A3015 RMK AO1
Loading
Personal Weather Stations






























Interactive Weather Map New forecast layout! Learn more

10-Day Weather Forecast

Advertisements
Track Severe Weather on mobile